sensor_id;sensor_type;location;lat;lon;timestamp;temperature;humidity
9760;DHT22;4919;48.792;9.202;2022-09-03T00:02:26;12.40;99.90
9760;DHT22;4919;48.792;9.202;2022-09-03T00:04:52;12.30;99.90
9760;DHT22;4919;48.792;9.202;2022-09-03T00:07:43;12.20;99.90
9760;DHT22;4919;48.792;9.202;2022-09-03T00:10:22;12.30;99.90
9760;DHT22;4919;48.792;9.202;2022-09-03T00:12:53;12.30;99.90
9760;DHT22;4919;48.792;9.202;2022-09-03T00:15:23;12.30;99.90
9760;DHT22;4919;48.792;9.202;2022-09-03T00:18:07;12.20;99.90
9760;DHT22;4919;48.792;9.202;2022-09-03T00:20:40;12.20;99.90
9760;DHT22;4919;48.792;9.202;2022-09-03T00:23:13;12.20;99.90
9760;DHT22;4919;48.792;9.202;2022-09-03T00:28:25;12.10;99.90
9760;DHT22;4919;48.792;9.202;2022-09-03T00:33:34;12.00;99.90
9760;DHT22;4919;48.792;9.202;2022-09-03T00:38:38;11.90;99.90
9760;DHT22;4919;48.792;9.202;2022-09-03T00:41:18;11.90;99.90
9760;DHT22;4919;48.792;9.202;2022-09-03T00:49:27;12.00;99.90
9760;DHT22;4919;48.792;9.202;2022-09-03T01:01:15;12.00;99.90
9760;DHT22;4919;48.792;9.202;2022-09-03T01:03:53;11.90;99.90
9760;DHT22;4919;48.792;9.202;2022-09-03T01:06:33;11.90;99.90
9760;DHT22;4919;48.792;9.202;2022-09-03T01:30:40;11.90;99.90
9760;DHT22;4919;48.792;9.202;2022-09-03T01:33:27;11.80;99.90
9760;DHT22;4919;48.792;9.202;2022-09-03T01:36:18;11.80;99.90
9760;DHT22;4919;48.792;9.202;2022-09-03T01:38:55;11.80;99.90
9760;DHT22;4919;48.792;9.202;2022-09-03T01:47:40;11.80;99.90
9760;DHT22;4919;48.792;9.202;2022-09-03T01:50:15;11.60;99.90
9760;DHT22;4919;48.792;9.202;2022-09-03T01:58:45;11.60;99.90
9760;DHT22;4919;48.792;9.202;2022-09-03T02:01:32;11.50;99.90
9760;DHT22;4919;48.792;9.202;2022-09-03T02:03:59;11.40;99.90
9760;DHT22;4919;48.792;9.202;2022-09-03T02:06:27;11.40;99.90
9760;DHT22;4919;48.792;9.202;2022-09-03T02:08:57;11.50;99.90
9760;DHT22;4919;48.792;9.202;2022-09-03T02:11:24;11.40;99.90
9760;DHT22;4919;48.792;9.202;2022-09-03T02:13:53;11.40;99.90
9760;DHT22;4919;48.792;9.202;2022-09-03T02:16:28;11.50;99.90
9760;DHT22;4919;48.792;9.202;2022-09-03T02:18:58;11.40;99.90
9760;DHT22;4919;48.792;9.202;2022-09-03T02:21:34;11.30;99.90
9760;DHT22;4919;48.792;9.202;2022-09-03T02:24:04;11.40;99.90
9760;DHT22;4919;48.792;9.202;2022-09-03T02:26:32;11.30;99.90
9760;DHT22;4919;48.792;9.202;2022-09-03T02:29:00;11.40;99.90
9760;DHT22;4919;48.792;9.202;2022-09-03T02:31:28;11.40;99.90
9760;DHT22;4919;48.792;9.202;2022-09-03T02:33:56;11.40;99.90
9760;DHT22;4919;48.792;9.202;2022-09-03T02:36:30;11.40;99.90
9760;DHT22;4919;48.792;9.202;2022-09-03T02:38:58;11.40;99.90
9760;DHT22;4919;48.792;9.202;2022-09-03T02:41:25;11.30;99.90
9760;DHT22;4919;48.792;9.202;2022-09-03T02:44:04;11.40;99.90
9760;DHT22;4919;48.792;9.202;2022-09-03T02:46:38;11.30;99.90
9760;DHT22;4919;48.792;9.202;2022-09-03T02:49:06;11.30;99.90
9760;DHT22;4919;48.792;9.202;2022-09-03T02:51:36;11.30;99.90
9760;DHT22;4919;48.792;9.202;2022-09-03T02:54:03;11.30;99.90
9760;DHT22;4919;48.792;9.202;2022-09-03T02:56:31;11.30;99.90
9760;DHT22;4919;48.792;9.202;2022-09-03T02:58:58;11.30;99.90
9760;DHT22;4919;48.792;9.202;2022-09-03T03:01:25;11.30;99.90
9760;DHT22;4919;48.792;9.202;2022-09-03T03:03:53;11.30;99.90
9760;DHT22;4919;48.792;9.202;2022-09-03T03:06:20;11.40;99.90
9760;DHT22;4919;48.792;9.202;2022-09-03T03:08:48;11.40;99.90
9760;DHT22;4919;48.792;9.202;2022-09-03T03:11:16;11.40;99.90
9760;DHT22;4919;48.792;9.202;2022-09-03T03:13:45;11.40;99.90
9760;DHT22;4919;48.792;9.202;2022-09-03T03:16:13;11.40;99.90
9760;DHT22;4919;48.792;9.202;2022-09-03T03:18:40;11.40;99.90
9760;DHT22;4919;48.792;9.202;2022-09-03T03:21:09;11.40;99.90
9760;DHT22;4919;48.792;9.202;2022-09-03T03:23:37;11.30;99.90
9760;DHT22;4919;48.792;9.202;2022-09-03T03:26:06;11.40;99.90
9760;DHT22;4919;48.792;9.202;2022-09-03T03:28:34;11.40;99.90
9760;DHT22;4919;48.792;9.202;2022-09-03T03:33:33;11.50;99.90
9760;DHT22;4919;48.792;9.202;2022-09-03T03:36:08;11.60;99.90
9760;DHT22;4919;48.792;9.202;2022-09-03T03:38:36;11.60;99.90
9760;DHT22;4919;48.792;9.202;2022-09-03T03:41:15;11.60;99.90
9760;DHT22;4919;48.792;9.202;2022-09-03T03:43:43;11.60;99.90
9760;DHT22;4919;48.792;9.202;2022-09-03T03:46:11;11.60;99.90
9760;DHT22;4919;48.792;9.202;2022-09-03T03:48:38;11.60;99.90
9760;DHT22;4919;48.792;9.202;2022-09-03T03:51:07;11.60;99.90
9760;DHT22;4919;48.792;9.202;2022-09-03T03:53:36;11.60;99.90
9760;DHT22;4919;48.792;9.202;2022-09-03T03:56:05;11.60;99.90
9760;DHT22;4919;48.792;9.202;2022-09-03T03:58:33;11.60;99.90
9760;DHT22;4919;48.792;9.202;2022-09-03T04:01:11;11.70;99.90
9760;DHT22;4919;48.792;9.202;2022-09-03T04:03:38;11.70;99.90
9760;DHT22;4919;48.792;9.202;2022-09-03T04:06:07;11.80;99.90
9760;DHT22;4919;48.792;9.202;2022-09-03T04:08:36;11.80;99.90
9760;DHT22;4919;48.792;9.202;2022-09-03T04:11:05;11.80;99.90
9760;DHT22;4919;48.792;9.202;2022-09-03T04:13:34;11.80;99.90
9760;DHT22;4919;48.792;9.202;2022-09-03T04:18:29;11.90;99.90
9760;DHT22;4919;48.792;9.202;2022-09-03T04:21:01;11.90;99.90
9760;DHT22;4919;48.792;9.202;2022-09-03T04:23:34;11.90;99.90
9760;DHT22;4919;48.792;9.202;2022-09-03T04:26:01;11.90;99.90
9760;DHT22;4919;48.792;9.202;2022-09-03T04:28:31;11.90;99.90
9760;DHT22;4919;48.792;9.202;2022-09-03T04:31:06;11.90;99.90
9760;DHT22;4919;48.792;9.202;2022-09-03T04:33:35;11.90;99.90
9760;DHT22;4919;48.792;9.202;2022-09-03T04:36:09;11.90;99.90
9760;DHT22;4919;48.792;9.202;2022-09-03T04:38:38;11.80;99.90
9760;DHT22;4919;48.792;9.202;2022-09-03T04:41:07;11.80;99.90
9760;DHT22;4919;48.792;9.202;2022-09-03T04:43:35;11.90;99.90
9760;DHT22;4919;48.792;9.202;2022-09-03T04:46:05;11.90;99.90
9760;DHT22;4919;48.792;9.202;2022-09-03T04:48:34;11.90;99.90
9760;DHT22;4919;48.792;9.202;2022-09-03T04:51:11;12.00;99.90
9760;DHT22;4919;48.792;9.202;2022-09-03T04:53:41;12.00;99.90
9760;DHT22;4919;48.792;9.202;2022-09-03T04:56:31;12.00;99.90
9760;DHT22;4919;48.792;9.202;2022-09-03T04:59:03;12.10;99.90
9760;DHT22;4919;48.792;9.202;2022-09-03T05:01:33;12.10;99.90
9760;DHT22;4919;48.792;9.202;2022-09-03T05:04:01;12.20;99.90
9760;DHT22;4919;48.792;9.202;2022-09-03T05:06:29;12.30;99.90
9760;DHT22;4919;48.792;9.202;2022-09-03T05:08:57;12.60;99.90
9760;DHT22;4919;48.792;9.202;2022-09-03T05:11:24;12.60;99.90
9760;DHT22;4919;48.792;9.202;2022-09-03T05:13:54;12.50;99.90
9760;DHT22;4919;48.792;9.202;2022-09-03T05:16:23;12.80;99.90
9760;DHT22;4919;48.792;9.202;2022-09-03T05:18:55;12.70;99.90
9760;DHT22;4919;48.792;9.202;2022-09-03T05:21:23;12.60;99.90
9760;DHT22;4919;48.792;9.202;2022-09-03T05:23:50;12.60;99.90
9760;DHT22;4919;48.792;9.202;2022-09-03T05:26:30;12.60;99.90
9760;DHT22;4919;48.792;9.202;2022-09-03T05:28:59;12.70;99.90
9760;DHT22;4919;48.792;9.202;2022-09-03T05:31:28;12.70;99.90
9760;DHT22;4919;48.792;9.202;2022-09-03T05:34:00;12.70;99.90
9760;DHT22;4919;48.792;9.202;2022-09-03T05:36:29;12.60;99.90
9760;DHT22;4919;48.792;9.202;2022-09-03T05:38:57;12.70;99.90
9760;DHT22;4919;48.792;9.202;2022-09-03T05:41:25;12.70;99.90
9760;DHT22;4919;48.792;9.202;2022-09-03T05:43:54;12.70;99.90
9760;DHT22;4919;48.792;9.202;2022-09-03T05:46:30;12.70;99.90
9760;DHT22;4919;48.792;9.202;2022-09-03T05:49:02;12.70;99.90
9760;DHT22;4919;48.792;9.202;2022-09-03T05:51:30;12.70;99.90
9760;DHT22;4919;48.792;9.202;2022-09-03T05:53:58;12.70;99.90
9760;DHT22;4919;48.792;9.202;2022-09-03T05:56:26;12.80;99.90
9760;DHT22;4919;48.792;9.202;2022-09-03T05:58:57;12.80;99.90
9760;DHT22;4919;48.792;9.202;2022-09-03T06:01:31;12.90;99.90
9760;DHT22;4919;48.792;9.202;2022-09-03T06:04:01;12.90;99.90
9760;DHT22;4919;48.792;9.202;2022-09-03T06:06:30;12.90;99.90
9760;DHT22;4919;48.792;9.202;2022-09-03T06:09:00;12.90;99.90
9760;DHT22;4919;48.792;9.202;2022-09-03T06:11:29;13.00;99.90
9760;DHT22;4919;48.792;9.202;2022-09-03T06:13:57;13.00;99.90
9760;DHT22;4919;48.792;9.202;2022-09-03T06:16:27;13.00;99.90
9760;DHT22;4919;48.792;9.202;2022-09-03T06:19:01;13.00;99.90
9760;DHT22;4919;48.792;9.202;2022-09-03T06:21:28;13.00;99.90
9760;DHT22;4919;48.792;9.202;2022-09-03T06:23:56;13.10;99.90
9760;DHT22;4919;48.792;9.202;2022-09-03T06:26:27;13.10;99.90
9760;DHT22;4919;48.792;9.202;2022-09-03T06:28:56;13.10;99.90
9760;DHT22;4919;48.792;9.202;2022-09-03T06:31:24;13.00;99.90
9760;DHT22;4919;48.792;9.202;2022-09-03T06:33:52;13.00;99.90
9760;DHT22;4919;48.792;9.202;2022-09-03T06:36:22;13.00;99.90
9760;DHT22;4919;48.792;9.202;2022-09-03T06:38:54;13.10;99.90
9760;DHT22;4919;48.792;9.202;2022-09-03T06:41:26;13.20;99.90
9760;DHT22;4919;48.792;9.202;2022-09-03T06:44:05;13.20;99.90
9760;DHT22;4919;48.792;9.202;2022-09-03T06:46:34;13.30;99.90
9760;DHT22;4919;48.792;9.202;2022-09-03T06:49:01;13.20;99.90
9760;DHT22;4919;48.792;9.202;2022-09-03T06:51:30;13.30;99.90
9760;DHT22;4919;48.792;9.202;2022-09-03T06:54:03;13.30;99.90
9760;DHT22;4919;48.792;9.202;2022-09-03T06:56:32;13.40;99.90
9760;DHT22;4919;48.792;9.202;2022-09-03T06:59:13;13.50;99.90
9760;DHT22;4919;48.792;9.202;2022-09-03T07:01:41;13.60;99.90
9760;DHT22;4919;48.792;9.202;2022-09-03T07:04:13;13.60;99.90
9760;DHT22;4919;48.792;9.202;2022-09-03T07:06:42;13.70;99.90
9760;DHT22;4919;48.792;9.202;2022-09-03T07:09:11;13.70;99.90
9760;DHT22;4919;48.792;9.202;2022-09-03T07:11:38;13.70;99.90
9760;DHT22;4919;48.792;9.202;2022-09-03T07:14:13;13.80;99.90
9760;DHT22;4919;48.792;9.202;2022-09-03T07:16:40;13.90;99.90
9760;DHT22;4919;48.792;9.202;2022-09-03T07:19:08;14.10;99.90
9760;DHT22;4919;48.792;9.202;2022-09-03T07:21:36;14.20;99.90
9760;DHT22;4919;48.792;9.202;2022-09-03T07:24:03;14.20;99.90
9760;DHT22;4919;48.792;9.202;2022-09-03T07:26:33;14.30;99.90
9760;DHT22;4919;48.792;9.202;2022-09-03T07:29:01;14.40;99.90
9760;DHT22;4919;48.792;9.202;2022-09-03T07:31:30;14.40;99.90
9760;DHT22;4919;48.792;9.202;2022-09-03T07:34:00;14.60;99.90
9760;DHT22;4919;48.792;9.202;2022-09-03T07:36:35;14.60;99.90
9760;DHT22;4919;48.792;9.202;2022-09-03T07:39:04;14.70;99.90
9760;DHT22;4919;48.792;9.202;2022-09-03T07:41:32;14.80;99.90
9760;DHT22;4919;48.792;9.202;2022-09-03T07:43:59;14.80;99.90
9760;DHT22;4919;48.792;9.202;2022-09-03T07:46:34;14.90;99.90
9760;DHT22;4919;48.792;9.202;2022-09-03T07:49:03;15.00;99.90
9760;DHT22;4919;48.792;9.202;2022-09-03T07:51:36;15.00;99.90
9760;DHT22;4919;48.792;9.202;2022-09-03T07:54:06;15.10;99.90
9760;DHT22;4919;48.792;9.202;2022-09-03T07:56:36;15.20;99.90
9760;DHT22;4919;48.792;9.202;2022-09-03T07:59:03;15.40;99.90
9760;DHT22;4919;48.792;9.202;2022-09-03T08:01:32;15.60;99.90
9760;DHT22;4919;48.792;9.202;2022-09-03T08:04:00;15.70;99.90
9760;DHT22;4919;48.792;9.202;2022-09-03T08:06:29;15.90;99.90
9760;DHT22;4919;48.792;9.202;2022-09-03T08:09:01;16.00;99.90
9760;DHT22;4919;48.792;9.202;2022-09-03T08:11:33;16.30;99.90
9760;DHT22;4919;48.792;9.202;2022-09-03T08:14:07;16.50;99.90
9760;DHT22;4919;48.792;9.202;2022-09-03T08:16:37;16.60;99.90
9760;DHT22;4919;48.792;9.202;2022-09-03T08:19:05;16.60;99.90
9760;DHT22;4919;48.792;9.202;2022-09-03T08:21:34;16.80;99.90
9760;DHT22;4919;48.792;9.202;2022-09-03T08:24:01;16.80;99.90
9760;DHT22;4919;48.792;9.202;2022-09-03T08:26:30;17.00;99.90
9760;DHT22;4919;48.792;9.202;2022-09-03T08:28:59;17.10;99.90
9760;DHT22;4919;48.792;9.202;2022-09-03T08:31:27;17.10;99.90
9760;DHT22;4919;48.792;9.202;2022-09-03T08:33:57;17.20;99.90
9760;DHT22;4919;48.792;9.202;2022-09-03T08:36:27;17.30;99.90
9760;DHT22;4919;48.792;9.202;2022-09-03T08:38:59;17.40;99.90
9760;DHT22;4919;48.792;9.202;2022-09-03T08:44:28;17.40;99.90
9760;DHT22;4919;48.792;9.202;2022-09-03T08:47:05;17.50;99.90
9760;DHT22;4919;48.792;9.202;2022-09-03T08:52:38;17.70;99.90
9760;DHT22;4919;48.792;9.202;2022-09-03T08:55:26;17.90;99.90
9760;DHT22;4919;48.792;9.202;2022-09-03T08:58:03;18.20;99.90
9760;DHT22;4919;48.792;9.202;2022-09-03T09:00:56;18.50;99.90
9760;DHT22;4919;48.792;9.202;2022-09-03T09:09:14;19.10;99.90
9760;DHT22;4919;48.792;9.202;2022-09-03T09:12:03;19.50;99.90
9760;DHT22;4919;48.792;9.202;2022-09-03T09:22:45;20.60;99.90
9760;DHT22;4919;48.792;9.202;2022-09-03T09:25:19;20.60;99.90
9760;DHT22;4919;48.792;9.202;2022-09-03T09:27:53;20.70;99.90
9760;DHT22;4919;48.792;9.202;2022-09-03T09:30:23;20.70;99.90
9760;DHT22;4919;48.792;9.202;2022-09-03T09:32:50;20.90;99.90
9760;DHT22;4919;48.792;9.202;2022-09-03T09:35:18;21.00;99.90
9760;DHT22;4919;48.792;9.202;2022-09-03T09:37:55;21.30;99.90
9760;DHT22;4919;48.792;9.202;2022-09-03T09:40:34;21.50;99.90
9760;DHT22;4919;48.792;9.202;2022-09-03T09:43:16;21.10;99.90
9760;DHT22;4919;48.792;9.202;2022-09-03T09:45:47;21.50;99.90
9760;DHT22;4919;48.792;9.202;2022-09-03T09:48:59;21.70;99.90
9760;DHT22;4919;48.792;9.202;2022-09-03T09:51:10;21.50;99.90
9760;DHT22;4919;48.792;9.202;2022-09-03T09:53:38;21.70;99.90
9760;DHT22;4919;48.792;9.202;2022-09-03T09:56:06;21.70;99.90
9760;DHT22;4919;48.792;9.202;2022-09-03T09:58:34;21.80;99.90
9760;DHT22;4919;48.792;9.202;2022-09-03T10:01:14;22.20;99.90
9760;DHT22;4919;48.792;9.202;2022-09-03T10:03:57;22.20;99.90
9760;DHT22;4919;48.792;9.202;2022-09-03T10:06:29;21.90;99.90
9760;DHT22;4919;48.792;9.202;2022-09-03T10:09:17;21.30;99.90
9760;DHT22;4919;48.792;9.202;2022-09-03T10:11:49;21.20;99.90
9760;DHT22;4919;48.792;9.202;2022-09-03T10:17:27;21.40;99.90
9760;DHT22;4919;48.792;9.202;2022-09-03T10:23:02;21.90;99.90
9760;DHT22;4919;48.792;9.202;2022-09-03T10:25:47;22.80;99.90
9760;DHT22;4919;48.792;9.202;2022-09-03T10:28:23;22.20;99.90
9760;DHT22;4919;48.792;9.202;2022-09-03T10:33:54;21.30;99.90
9760;DHT22;4919;48.792;9.202;2022-09-03T10:39:28;22.10;99.90
9760;DHT22;4919;48.792;9.202;2022-09-03T10:42:45;22.70;99.90
9760;DHT22;4919;48.792;9.202;2022-09-03T10:50:14;22.90;99.90
9760;DHT22;4919;48.792;9.202;2022-09-03T10:53:13;22.70;99.90
9760;DHT22;4919;48.792;9.202;2022-09-03T10:56:10;23.20;99.90
9760;DHT22;4919;48.792;9.202;2022-09-03T11:06:53;21.40;99.90
9760;DHT22;4919;48.792;9.202;2022-09-03T11:09:29;21.00;99.90
9760;DHT22;4919;48.792;9.202;2022-09-03T11:12:04;20.80;99.90
9760;DHT22;4919;48.792;9.202;2022-09-03T11:14:49;20.70;99.90
9760;DHT22;4919;48.792;9.202;2022-09-03T11:17:24;21.50;99.90
9760;DHT22;4919;48.792;9.202;2022-09-03T11:22:41;21.80;99.90
9760;DHT22;4919;48.792;9.202;2022-09-03T11:25:13;22.00;99.90
9760;DHT22;4919;48.792;9.202;2022-09-03T11:30:11;22.20;99.90
9760;DHT22;4919;48.792;9.202;2022-09-03T11:32:46;22.80;99.90
9760;DHT22;4919;48.792;9.202;2022-09-03T11:38:07;23.10;99.90
9760;DHT22;4919;48.792;9.202;2022-09-03T11:40:38;23.30;99.90
9760;DHT22;4919;48.792;9.202;2022-09-03T11:45:39;23.20;99.90
9760;DHT22;4919;48.792;9.202;2022-09-03T11:48:33;23.50;99.90
9760;DHT22;4919;48.792;9.202;2022-09-03T11:51:02;23.20;99.90
9760;DHT22;4919;48.792;9.202;2022-09-03T11:53:34;22.70;99.90
9760;DHT22;4919;48.792;9.202;2022-09-03T11:58:35;23.20;99.90
9760;DHT22;4919;48.792;9.202;2022-09-03T12:01:14;23.00;99.90
9760;DHT22;4919;48.792;9.202;2022-09-03T12:03:51;22.90;99.90
9760;DHT22;4919;48.792;9.202;2022-09-03T12:14:55;22.90;99.90
9760;DHT22;4919;48.792;9.202;2022-09-03T12:20:11;22.80;99.90
9760;DHT22;4919;48.792;9.202;2022-09-03T12:22:41;22.90;99.90
9760;DHT22;4919;48.792;9.202;2022-09-03T12:25:13;23.00;99.90
9760;DHT22;4919;48.792;9.202;2022-09-03T12:27:43;22.90;99.90
9760;DHT22;4919;48.792;9.202;2022-09-03T12:30:16;22.90;99.90
9760;DHT22;4919;48.792;9.202;2022-09-03T12:32:43;22.90;99.90
9760;DHT22;4919;48.792;9.202;2022-09-03T12:35:15;22.70;99.90
9760;DHT22;4919;48.792;9.202;2022-09-03T12:38:02;22.30;99.90
9760;DHT22;4919;48.792;9.202;2022-09-03T12:40:33;22.60;99.90
9760;DHT22;4919;48.792;9.202;2022-09-03T12:43:26;22.70;99.90
9760;DHT22;4919;48.792;9.202;2022-09-03T12:46:14;22.70;99.90
9760;DHT22;4919;48.792;9.202;2022-09-03T12:48:52;22.30;99.90
9760;DHT22;4919;48.792;9.202;2022-09-03T12:51:41;22.30;99.90
9760;DHT22;4919;48.792;9.202;2022-09-03T12:54:22;22.70;99.90
9760;DHT22;4919;48.792;9.202;2022-09-03T12:56:56;23.00;99.90
9760;DHT22;4919;48.792;9.202;2022-09-03T12:59:26;22.80;99.90
9760;DHT22;4919;48.792;9.202;2022-09-03T13:01:59;22.90;99.90
9760;DHT22;4919;48.792;9.202;2022-09-03T13:04:30;22.90;99.90
9760;DHT22;4919;48.792;9.202;2022-09-03T13:07:03;22.60;99.90
9760;DHT22;4919;48.792;9.202;2022-09-03T13:09:34;22.30;99.90
9760;DHT22;4919;48.792;9.202;2022-09-03T13:12:02;22.40;99.90
9760;DHT22;4919;48.792;9.202;2022-09-03T13:14:42;22.50;99.90
9760;DHT22;4919;48.792;9.202;2022-09-03T13:20:34;22.40;99.90
9760;DHT22;4919;48.792;9.202;2022-09-03T13:31:35;22.50;99.90
9760;DHT22;4919;48.792;9.202;2022-09-03T13:34:08;22.50;99.90
9760;DHT22;4919;48.792;9.202;2022-09-03T13:39:26;22.40;99.90
9760;DHT22;4919;48.792;9.202;2022-09-03T13:42:19;22.60;99.90
9760;DHT22;4919;48.792;9.202;2022-09-03T13:47:39;23.00;99.90
9760;DHT22;4919;48.792;9.202;2022-09-03T13:51:21;23.00;99.90
9760;DHT22;4919;48.792;9.202;2022-09-03T14:02:49;22.60;99.90
9760;DHT22;4919;48.792;9.202;2022-09-03T14:05:33;22.70;99.90
9760;DHT22;4919;48.792;9.202;2022-09-03T14:08:12;22.60;99.90
9760;DHT22;4919;48.792;9.202;2022-09-03T14:13:55;22.70;99.90
9760;DHT22;4919;48.792;9.202;2022-09-03T14:16:47;22.50;99.90
9760;DHT22;4919;48.792;9.202;2022-09-03T14:25:17;22.00;99.90
9760;DHT22;4919;48.792;9.202;2022-09-03T14:27:45;22.20;99.90
9760;DHT22;4919;48.792;9.202;2022-09-03T14:36:02;22.10;99.90
9760;DHT22;4919;48.792;9.202;2022-09-03T14:44:34;22.00;99.90
9760;DHT22;4919;48.792;9.202;2022-09-03T15:01:12;21.80;99.90
9760;DHT22;4919;48.792;9.202;2022-09-03T15:09:58;21.80;99.90
9760;DHT22;4919;48.792;9.202;2022-09-03T15:12:37;21.70;99.90
9760;DHT22;4919;48.792;9.202;2022-09-03T15:15:28;21.70;99.90
9760;DHT22;4919;48.792;9.202;2022-09-03T15:20:42;21.70;99.90
9760;DHT22;4919;48.792;9.202;2022-09-03T15:28:45;21.60;99.90
9760;DHT22;4919;48.792;9.202;2022-09-03T15:34:11;21.60;99.90
9760;DHT22;4919;48.792;9.202;2022-09-03T15:36:43;21.60;99.90
9760;DHT22;4919;48.792;9.202;2022-09-03T15:39:22;21.50;99.90
9760;DHT22;4919;48.792;9.202;2022-09-03T15:41:53;21.60;99.90
9760;DHT22;4919;48.792;9.202;2022-09-03T15:44:24;21.60;99.90
9760;DHT22;4919;48.792;9.202;2022-09-03T15:47:00;21.70;99.90
9760;DHT22;4919;48.792;9.202;2022-09-03T15:52:57;21.80;99.90
9760;DHT22;4919;48.792;9.202;2022-09-03T15:55:38;21.80;99.90
9760;DHT22;4919;48.792;9.202;2022-09-03T16:01:00;21.50;99.90
9760;DHT22;4919;48.792;9.202;2022-09-03T16:03:33;21.40;99.90
9760;DHT22;4919;48.792;9.202;2022-09-03T16:08:58;21.20;99.90
9760;DHT22;4919;48.792;9.202;2022-09-03T16:11:39;21.20;99.90
9760;DHT22;4919;48.792;9.202;2022-09-03T16:14:19;21.30;99.90
9760;DHT22;4919;48.792;9.202;2022-09-03T16:19:45;21.20;99.90
9760;DHT22;4919;48.792;9.202;2022-09-03T16:22:38;21.20;99.90
9760;DHT22;4919;48.792;9.202;2022-09-03T16:25:20;21.10;99.90
9760;DHT22;4919;48.792;9.202;2022-09-03T16:28:08;21.10;99.90
9760;DHT22;4919;48.792;9.202;2022-09-03T16:39:02;21.20;99.90
9760;DHT22;4919;48.792;9.202;2022-09-03T16:59:10;20.50;99.90
9760;DHT22;4919;48.792;9.202;2022-09-03T17:18:36;19.90;99.90
9760;DHT22;4919;48.792;9.202;2022-09-03T17:21:17;19.70;99.90
9760;DHT22;4919;48.792;9.202;2022-09-03T17:40:52;19.30;99.90
9760;DHT22;4919;48.792;9.202;2022-09-03T17:48:57;19.20;99.90
9760;DHT22;4919;48.792;9.202;2022-09-03T17:51:46;19.00;99.90
9760;DHT22;4919;48.792;9.202;2022-09-03T17:54:39;18.90;99.90
9760;DHT22;4919;48.792;9.202;2022-09-03T17:57:22;18.80;99.90
9760;DHT22;4919;48.792;9.202;2022-09-03T18:05:48;18.70;99.90
9760;DHT22;4919;48.792;9.202;2022-09-03T18:08:46;18.80;99.90
9760;DHT22;4919;48.792;9.202;2022-09-03T18:11:37;18.80;99.90
9760;DHT22;4919;48.792;9.202;2022-09-03T18:17:08;18.70;99.90
9760;DHT22;4919;48.792;9.202;2022-09-03T18:19:47;18.70;99.90
9760;DHT22;4919;48.792;9.202;2022-09-03T18:25:39;18.80;99.90
9760;DHT22;4919;48.792;9.202;2022-09-03T18:28:41;19.00;99.90
9760;DHT22;4919;48.792;9.202;2022-09-03T18:31:28;19.00;99.90
9760;DHT22;4919;48.792;9.202;2022-09-03T18:34:14;19.00;99.90
9760;DHT22;4919;48.792;9.202;2022-09-03T18:37:01;18.90;99.90
9760;DHT22;4919;48.792;9.202;2022-09-03T18:39:46;18.90;99.90
9760;DHT22;4919;48.792;9.202;2022-09-03T18:45:45;18.80;99.90
9760;DHT22;4919;48.792;9.202;2022-09-03T18:49:10;18.70;99.90
9760;DHT22;4919;48.792;9.202;2022-09-03T18:52:10;18.60;99.90
9760;DHT22;4919;48.792;9.202;2022-09-03T18:58:14;18.40;99.90
9760;DHT22;4919;48.792;9.202;2022-09-03T19:01:35;18.40;99.90
9760;DHT22;4919;48.792;9.202;2022-09-03T19:07:54;18.20;99.90
9760;DHT22;4919;48.792;9.202;2022-09-03T19:13:45;18.00;99.90
9760;DHT22;4919;48.792;9.202;2022-09-03T19:20:20;17.90;99.90
9760;DHT22;4919;48.792;9.202;2022-09-03T19:22:55;17.90;99.90
9760;DHT22;4919;48.792;9.202;2022-09-03T19:25:41;17.80;99.90
9760;DHT22;4919;48.792;9.202;2022-09-03T19:28:31;17.70;99.90
9760;DHT22;4919;48.792;9.202;2022-09-03T19:46:44;17.60;99.90
9760;DHT22;4919;48.792;9.202;2022-09-03T19:52:54;17.60;99.90
9760;DHT22;4919;48.792;9.202;2022-09-03T19:55:48;17.60;99.90
9760;DHT22;4919;48.792;9.202;2022-09-03T19:58:40;17.60;99.90
9760;DHT22;4919;48.792;9.202;2022-09-03T20:01:34;17.70;99.90
9760;DHT22;4919;48.792;9.202;2022-09-03T20:04:29;17.70;99.90
9760;DHT22;4919;48.792;9.202;2022-09-03T20:07:16;17.80;99.90
9760;DHT22;4919;48.792;9.202;2022-09-03T20:10:06;17.80;99.90
9760;DHT22;4919;48.792;9.202;2022-09-03T20:13:04;17.70;99.90
9760;DHT22;4919;48.792;9.202;2022-09-03T20:16:06;17.70;99.90
9760;DHT22;4919;48.792;9.202;2022-09-03T20:18:45;17.80;99.90
9760;DHT22;4919;48.792;9.202;2022-09-03T20:51:36;17.20;99.90
9760;DHT22;4919;48.792;9.202;2022-09-03T20:54:12;17.20;99.90
9760;DHT22;4919;48.792;9.202;2022-09-03T21:02:17;17.10;99.90
9760;DHT22;4919;48.792;9.202;2022-09-03T21:10:33;17.10;99.90
9760;DHT22;4919;48.792;9.202;2022-09-03T21:13:44;17.00;99.90
9760;DHT22;4919;48.792;9.202;2022-09-03T21:19:07;17.00;99.90
9760;DHT22;4919;48.792;9.202;2022-09-03T21:27:15;17.00;99.90
9760;DHT22;4919;48.792;9.202;2022-09-03T21:30:01;17.00;99.90
9760;DHT22;4919;48.792;9.202;2022-09-03T21:32:43;17.00;99.90
9760;DHT22;4919;48.792;9.202;2022-09-03T21:40:28;16.90;99.90
9760;DHT22;4919;48.792;9.202;2022-09-03T21:45:55;16.80;99.90
9760;DHT22;4919;48.792;9.202;2022-09-03T21:48:31;16.70;99.90
9760;DHT22;4919;48.792;9.202;2022-09-03T21:51:29;16.70;99.90
9760;DHT22;4919;48.792;9.202;2022-09-03T21:54:03;16.70;99.90
9760;DHT22;4919;48.792;9.202;2022-09-03T21:56:49;16.70;99.90
9760;DHT22;4919;48.792;9.202;2022-09-03T22:04:17;16.60;99.90
9760;DHT22;4919;48.792;9.202;2022-09-03T22:12:32;16.40;99.90
9760;DHT22;4919;48.792;9.202;2022-09-03T22:15:02;16.50;99.90
9760;DHT22;4919;48.792;9.202;2022-09-03T22:20:09;16.30;99.90
9760;DHT22;4919;48.792;9.202;2022-09-03T22:22:48;16.30;99.90
9760;DHT22;4919;48.792;9.202;2022-09-03T22:28:27;16.20;99.90
9760;DHT22;4919;48.792;9.202;2022-09-03T22:31:05;16.20;99.90
9760;DHT22;4919;48.792;9.202;2022-09-03T22:36:39;16.20;99.90
9760;DHT22;4919;48.792;9.202;2022-09-03T22:39:39;16.20;99.90
9760;DHT22;4919;48.792;9.202;2022-09-03T22:45:31;16.10;99.90
9760;DHT22;4919;48.792;9.202;2022-09-03T22:56:13;15.90;99.90
9760;DHT22;4919;48.792;9.202;2022-09-03T23:04:26;15.70;99.90
9760;DHT22;4919;48.792;9.202;2022-09-03T23:07:00;15.70;99.90
9760;DHT22;4919;48.792;9.202;2022-09-03T23:09:32;15.60;99.90
9760;DHT22;4919;48.792;9.202;2022-09-03T23:12:06;15.50;99.90
9760;DHT22;4919;48.792;9.202;2022-09-03T23:14:43;15.40;99.90
9760;DHT22;4919;48.792;9.202;2022-09-03T23:17:32;15.40;99.90
9760;DHT22;4919;48.792;9.202;2022-09-03T23:22:50;15.20;99.90
9760;DHT22;4919;48.792;9.202;2022-09-03T23:25:28;15.20;99.90
9760;DHT22;4919;48.792;9.202;2022-09-03T23:28:23;15.30;99.90
9760;DHT22;4919;48.792;9.202;2022-09-03T23:30:46;15.30;99.90
9760;DHT22;4919;48.792;9.202;2022-09-03T23:33:13;15.30;99.90
9760;DHT22;4919;48.792;9.202;2022-09-03T23:36:01;15.20;99.90
9760;DHT22;4919;48.792;9.202;2022-09-03T23:41:10;15.20;99.90
9760;DHT22;4919;48.792;9.202;2022-09-03T23:44:04;15.20;99.90
9760;DHT22;4919;48.792;9.202;2022-09-03T23:46:40;15.20;99.90
9760;DHT22;4919;48.792;9.202;2022-09-03T23:49:33;15.20;99.90
